In Rescue
 
Open Full Screen Window  High Contrast Mode
Wind Gusting 00 knots
07
February 25, 2021 4:43 PM EST
Weather Information
Wind Direction
  310 °
Wind Speed
  07 kt (8 mph)
Wind Gust
  00 kt (0 mph)
Altimeter
30.21 in
Visibility
10 SM
Temperature
00° C
32° F
Dewpoint
-06° C
21° F
Humidity
64%
Sky Condition
Overcast @ 4,200 ft
Scattered @ 3,300 ft
Scattered @ 2,700 ft
VFR

METAR KCVX 252143Z AUTO 31007KT 10SM SCT027 SCT033 OVC042 00/M06 A3021 RMK AO2 T10021058

FAA Disclaimer: The data displayed is for advisory purposes only and is not to be used for flight planning or operations.